Time,TemperatureF,DewpointF,PressureIn,WindDirection,WindDirectionDegrees,WindSpeedMPH,WindSpeedGustMPH,Humidity,HourlyPrecipIn,Conditions,Clouds,dailyrainin,SoftwareType,DateUTC
2013-06-02 00:02:00,48.0,39.0,30.05,NNW,340,1.0,8.0,70,0.00,,,0.20,,2013-06-02 05:02:00,
2013-06-02 00:12:00,48.0,39.0,30.05,NNW,340,1.0,8.0,70,0.00,,,0.20,,2013-06-02 05:12:00,
2013-06-02 00:22:00,48.0,39.0,30.06,NW,312,3.0,9.0,70,0.00,,,0.20,,2013-06-02 05:22:00,
2013-06-02 00:32:00,48.0,39.0,30.06,NW,309,3.0,9.0,71,0.00,,,0.20,,2013-06-02 05:32:00,
2013-06-02 00:42:00,48.0,39.0,30.06,NW,309,3.0,9.0,71,0.00,,,0.20,,2013-06-02 05:42:00,
2013-06-02 00:52:00,48.0,39.0,30.06,North,355,1.0,6.0,71,0.00,,,0.20,,2013-06-02 05:52:00,
2013-06-02 01:01:00,48.0,39.0,30.07,NW,312,1.0,6.0,71,0.00,,,0.20,,2013-06-02 06:01:00,
2013-06-02 01:12:00,48.0,39.0,30.07,NW,312,1.0,6.0,71,0.00,,,0.20,,2013-06-02 06:12:00,
2013-06-02 01:21:00,48.0,39.0,30.07,West,261,1.0,7.0,71,0.00,,,0.20,,2013-06-02 06:21:00,
2013-06-02 01:32:00,48.0,39.0,30.07,NW,305,3.0,8.0,71,0.00,,,0.20,,2013-06-02 06:32:00,
2013-06-02 01:42:00,48.0,39.0,30.07,NW,305,3.0,8.0,71,0.00,,,0.20,,2013-06-02 06:42:00,
2013-06-02 01:52:00,47.0,38.0,30.07,WSW,242,0.0,6.0,71,0.00,,,0.20,,2013-06-02 06:52:00,
2013-06-02 02:01:00,47.0,38.0,30.07,NW,308,1.0,6.0,72,0.00,,,0.20,,2013-06-02 07:01:00,
2013-06-02 02:11:00,47.0,38.0,30.07,NW,308,1.0,6.0,72,0.00,,,0.20,,2013-06-02 07:11:00,
2013-06-02 02:21:00,47.0,38.0,30.07,WNW,287,1.0,6.0,72,0.00,,,0.20,,2013-06-02 07:21:00,
2013-06-02 02:32:00,47.0,38.0,30.08,NW,319,2.0,6.0,72,0.00,,,0.20,,2013-06-02 07:32:00,
2013-06-02 02:42:00,47.0,38.0,30.08,NW,319,2.0,6.0,72,0.00,,,0.20,,2013-06-02 07:42:00,
2013-06-02 02:52:00,47.0,39.0,30.08,West,265,1.0,5.0,73,0.00,,,0.20,,2013-06-02 07:52:00,
2013-06-02 03:01:00,47.0,39.0,30.08,West,274,0.0,5.0,73,0.00,,,0.20,,2013-06-02 08:01:00,
2013-06-02 03:11:00,47.0,39.0,30.08,West,274,0.0,5.0,73,0.00,,,0.20,,2013-06-02 08:11:00,
2013-06-02 03:21:00,46.0,38.0,30.09,West,280,2.0,6.0,74,0.00,,,0.20,,2013-06-02 08:21:00,
2013-06-02 03:32:00,46.0,38.0,30.09,WNW,296,1.0,6.0,73,0.00,,,0.20,,2013-06-02 08:32:00,
2013-06-02 03:41:00,46.0,38.0,30.09,WNW,296,1.0,6.0,73,0.00,,,0.20,,2013-06-02 08:41:00,
2013-06-02 03:52:00,46.0,38.0,30.09,NW,319,1.0,6.0,73,0.00,,,0.19,,2013-06-02 08:52:00,
2013-06-02 04:01:00,46.0,38.0,30.08,WNW,302,1.0,5.0,74,0.00,,,0.19,,2013-06-02 09:01:00,
2013-06-02 04:11:00,46.0,38.0,30.08,WNW,302,1.0,5.0,74,0.00,,,0.19,,2013-06-02 09:11:00,
2013-06-02 04:21:00,45.0,38.0,30.09,NW,315,3.0,7.0,75,0.00,,,0.19,,2013-06-02 09:21:00,
2013-06-02 04:33:00,45.0,38.0,30.09,WSW,246,4.0,7.0,76,0.00,,,0.19,,2013-06-02 09:33:00,
2013-06-02 04:42:00,45.0,38.0,30.09,WSW,246,4.0,7.0,76,0.00,,,0.19,,2013-06-02 09:42:00,
2013-06-02 04:53:00,45.0,38.0,30.10,West,279,2.0,7.0,76,0.00,,,0.13,,2013-06-02 09:53:00,
2013-06-02 05:02:00,45.0,38.0,30.10,West,277,2.0,8.0,76,0.00,,,0.13,,2013-06-02 10:02:00,
2013-06-02 05:12:00,45.0,38.0,30.10,West,277,2.0,8.0,76,0.00,,,0.13,,2013-06-02 10:12:00,
2013-06-02 05:22:00,45.0,38.0,30.09,WSW,255,4.0,8.0,76,0.00,,,0.13,,2013-06-02 10:22:00,
2013-06-02 05:32:00,45.0,38.0,30.10,WSW,244,4.0,9.0,77,0.00,,,0.13,,2013-06-02 10:32:00,
2013-06-02 05:42:00,45.0,38.0,30.10,WSW,244,4.0,9.0,77,0.00,,,0.13,,2013-06-02 10:42:00,
2013-06-02 05:52:00,44.0,37.0,30.10,WSW,257,4.0,8.0,77,0.00,,,0.10,,2013-06-02 10:52:00,
2013-06-02 06:02:00,44.0,37.0,30.11,WNW,282,3.0,8.0,77,0.00,,,0.10,,2013-06-02 11:02:00,
2013-06-02 06:12:00,44.0,37.0,30.11,WNW,282,3.0,8.0,77,0.00,,,0.10,,2013-06-02 11:12:00,
2013-06-02 06:21:00,44.0,37.0,30.11,WSW,245,2.0,6.0,77,0.00,,,0.10,,2013-06-02 11:21:00,
2013-06-02 06:32:00,44.0,37.0,30.11,West,270,2.0,7.0,77,0.00,,,0.10,,2013-06-02 11:32:00,
2013-06-02 06:42:00,44.0,37.0,30.11,West,270,2.0,7.0,77,0.00,,,0.10,,2013-06-02 11:42:00,
2013-06-02 06:52:00,44.0,38.0,30.11,West,271,2.0,5.0,78,0.00,,,0.10,,2013-06-02 11:52:00,
2013-06-02 07:01:00,44.0,37.0,30.12,West,261,2.0,7.0,77,0.00,,,0.10,,2013-06-02 12:01:00,
2013-06-02 07:11:00,44.0,37.0,30.12,West,261,2.0,7.0,77,0.00,,,0.10,,2013-06-02 12:11:00,
2013-06-02 07:21:00,45.0,38.0,30.12,NW,309,2.0,7.0,77,0.00,,,0.10,,2013-06-02 12:21:00,
2013-06-02 07:32:00,46.0,39.0,30.12,West,265,1.0,7.0,76,0.00,,,0.10,,2013-06-02 12:32:00,
2013-06-02 07:42:00,46.0,39.0,30.12,West,265,1.0,7.0,76,0.00,,,0.10,,2013-06-02 12:42:00,
2013-06-02 07:52:00,47.0,39.0,30.12,NW,313,2.0,6.0,75,0.00,,,0.04,,2013-06-02 12:52:00,
2013-06-02 08:01:00,47.0,39.0,30.12,NNW,345,3.0,8.0,73,0.00,,,0.04,,2013-06-02 13:01:00,
2013-06-02 08:11:00,47.0,39.0,30.12,NNW,345,3.0,8.0,73,0.00,,,0.04,,2013-06-02 13:11:00,
2013-06-02 08:21:00,48.0,39.0,30.13,North,360,3.0,10.0,72,0.00,,,0.04,,2013-06-02 13:21:00,
2013-06-02 08:32:00,49.0,40.0,30.12,NNW,342,1.0,6.0,70,0.00,,,0.04,,2013-06-02 13:32:00,
2013-06-02 08:42:00,49.0,40.0,30.12,NNW,342,1.0,6.0,70,0.00,,,0.04,,2013-06-02 13:42:00,
2013-06-02 08:52:00,50.0,40.0,30.13,NNW,336,2.0,6.0,69,0.00,,,0.02,,2013-06-02 13:52:00,
2013-06-02 09:02:00,51.0,40.0,30.13,NE,51,0.0,4.0,67,0.00,,,0.02,,2013-06-02 14:02:00,
2013-06-02 09:11:00,51.0,40.0,30.13,NE,51,0.0,4.0,67,0.00,,,0.02,,2013-06-02 14:11:00,
2013-06-02 09:21:00,51.0,40.0,30.13,NW,308,1.0,7.0,66,0.00,,,0.02,,2013-06-02 14:21:00,
2013-06-02 09:32:00,51.0,40.0,30.13,NNW,346,3.0,6.0,67,0.00,,,0.02,,2013-06-02 14:32:00,
2013-06-02 09:42:00,51.0,40.0,30.13,NNW,346,3.0,6.0,67,0.00,,,0.02,,2013-06-02 14:42:00,
2013-06-02 09:52:00,52.0,42.0,30.13,WSW,251,2.0,6.0,68,0.00,,,0.01,,2013-06-02 14:52:00,
2013-06-02 10:01:00,53.0,42.0,30.13,WNW,295,2.0,7.0,67,0.00,,,0.01,,2013-06-02 15:01:00,
2013-06-02 10:11:00,53.0,42.0,30.13,WNW,295,2.0,7.0,67,0.00,,,0.01,,2013-06-02 15:11:00,
2013-06-02 10:21:00,53.0,41.0,30.13,SW,236,3.0,9.0,63,0.00,,,0.01,,2013-06-02 15:21:00,
2013-06-02 10:32:00,54.0,41.0,30.13,West,265,1.0,6.0,62,0.00,,,0.01,,2013-06-02 15:32:00,
2013-06-02 10:43:00,55.0,39.0,30.12,WSW,247,1.0,7.0,54,0.00,,,0.01,,2013-06-02 15:43:00,
2013-06-02 10:53:00,55.0,39.0,30.12,WSW,247,1.0,7.0,54,0.00,,,0.01,,2013-06-02 15:53:00,
2013-06-02 11:03:00,57.0,36.0,30.12,West,277,1.0,4.0,45,0.00,,,0.01,,2013-06-02 16:03:00,
2013-06-02 11:13:00,57.0,36.0,30.12,West,277,1.0,4.0,45,0.00,,,0.01,,2013-06-02 16:13:00,
2013-06-02 11:23:00,56.0,42.0,30.11,NE,55,1.0,5.0,59,0.00,,,0.01,,2013-06-02 16:23:00,
2013-06-02 11:33:00,58.0,44.0,30.11,West,281,1.0,3.0,59,0.00,,,0.01,,2013-06-02 16:33:00,
2013-06-02 11:42:00,58.0,44.0,30.11,West,281,1.0,3.0,59,0.00,,,0.01,,2013-06-02 16:42:00,
2013-06-02 11:52:00,58.0,44.0,30.11,SW,227,1.0,6.0,60,0.00,,,0.01,,2013-06-02 16:52:00,
2013-06-02 12:02:00,57.0,44.0,30.11,WSW,240,1.0,6.0,61,0.00,,,0.01,,2013-06-02 17:02:00,
2013-06-02 12:12:00,57.0,44.0,30.11,WSW,240,1.0,6.0,61,0.00,,,0.01,,2013-06-02 17:12:00,
2013-06-02 12:22:00,58.0,44.0,30.10,East,88,2.0,9.0,59,0.00,,,0.01,,2013-06-02 17:22:00,
2013-06-02 12:32:00,58.0,45.0,30.10,West,272,2.0,7.0,61,0.00,,,0.01,,2013-06-02 17:32:00,
2013-06-02 12:42:00,58.0,45.0,30.10,NW,304,1.0,7.0,61,0.00,,,0.01,,2013-06-02 17:42:00,
2013-06-02 12:52:00,58.0,45.0,30.10,NW,304,1.0,7.0,61,0.00,,,0.01,,2013-06-02 17:52:00,
2013-06-02 13:01:00,60.0,46.0,30.09,North,5,3.0,8.0,59,0.00,,,0.01,,2013-06-02 18:01:00,
2013-06-02 13:11:00,60.0,46.0,30.09,North,5,3.0,8.0,59,0.00,,,0.01,,2013-06-02 18:11:00,
2013-06-02 13:21:00,60.0,46.0,30.09,West,261,4.0,8.0,59,0.00,,,0.01,,2013-06-02 18:21:00,
2013-06-02 13:32:00,60.0,46.0,30.08,SW,235,2.0,11.0,60,0.00,,,0.01,,2013-06-02 18:32:00,
2013-06-02 13:42:00,61.0,45.0,30.09,North,5,3.0,6.0,56,0.00,,,0.01,,2013-06-02 18:42:00,
2013-06-02 13:52:00,61.0,45.0,30.09,North,5,3.0,6.0,56,0.00,,,0.01,,2013-06-02 18:52:00,
2013-06-02 14:01:00,62.0,46.0,30.08,WNW,300,1.0,5.0,55,0.00,,,0.01,,2013-06-02 19:01:00,
2013-06-02 14:11:00,62.0,46.0,30.08,WNW,300,1.0,5.0,55,0.00,,,0.01,,2013-06-02 19:11:00,
2013-06-02 14:21:00,62.0,45.0,30.08,NNE,15,1.0,4.0,54,0.00,,,0.01,,2013-06-02 19:21:00,
2013-06-02 14:32:00,62.0,44.0,30.08,NE,55,1.0,6.0,51,0.00,,,0.01,,2013-06-02 19:32:00,
2013-06-02 14:42:00,62.0,44.0,30.08,NE,55,1.0,6.0,51,0.00,,,0.01,,2013-06-02 19:42:00,
2013-06-02 14:52:00,63.0,47.0,30.08,NNE,23,1.0,4.0,55,0.00,,,0.00,,2013-06-02 19:52:00,
2013-06-02 15:02:00,62.0,44.0,30.07,WSW,239,2.0,7.0,51,0.00,,,0.00,,2013-06-02 20:02:00,
2013-06-02 15:11:00,62.0,44.0,30.07,WSW,239,2.0,7.0,51,0.00,,,0.00,,2013-06-02 20:11:00,
2013-06-02 15:22:00,63.0,45.0,30.07,NNW,327,1.0,7.0,52,0.00,,,0.00,,2013-06-02 20:22:00,
2013-06-02 15:32:00,62.0,44.0,30.06,WSW,250,1.0,8.0,52,0.00,,,0.00,,2013-06-02 20:32:00,
2013-06-02 15:42:00,62.0,44.0,30.06,WSW,250,1.0,8.0,52,0.00,,,0.00,,2013-06-02 20:42:00,
2013-06-02 15:52:00,64.0,47.0,30.06,West,271,1.0,6.0,54,0.00,,,0.00,,2013-06-02 20:52:00,
2013-06-02 16:01:00,63.0,46.0,30.05,NNW,343,1.0,5.0,53,0.00,,,0.00,,2013-06-02 21:01:00,
2013-06-02 16:12:00,63.0,46.0,30.05,NNW,343,1.0,5.0,53,0.00,,,0.00,,2013-06-02 21:12:00,
2013-06-02 16:21:00,63.0,45.0,30.05,ENE,77,1.0,4.0,52,0.00,,,0.00,,2013-06-02 21:21:00,
2013-06-02 16:33:00,64.0,44.0,30.04,ENE,67,1.0,6.0,49,0.00,,,0.00,,2013-06-02 21:33:00,
2013-06-02 16:42:00,64.0,44.0,30.04,ENE,67,1.0,6.0,49,0.00,,,0.00,,2013-06-02 21:42:00,
2013-06-02 16:53:00,63.0,46.0,30.04,West,272,1.0,5.0,53,0.00,,,0.00,,2013-06-02 21:53:00,
2013-06-02 17:03:00,65.0,45.0,30.03,West,267,1.0,5.0,49,0.00,,,0.00,,2013-06-02 22:03:00,
2013-06-02 17:12:00,65.0,45.0,30.03,West,267,1.0,5.0,49,0.00,,,0.00,,2013-06-02 22:12:00,
2013-06-02 17:23:00,65.0,44.0,30.03,WSW,245,3.0,6.0,47,0.00,,,0.00,,2013-06-02 22:23:00,
2013-06-02 17:33:00,65.0,44.0,30.02,West,265,1.0,4.0,46,0.00,,,0.00,,2013-06-02 22:33:00,
2013-06-02 17:42:00,65.0,44.0,30.02,West,265,1.0,4.0,46,0.00,,,0.00,,2013-06-02 22:42:00,
2013-06-02 17:53:00,64.0,44.0,30.02,WNW,297,2.0,8.0,49,0.00,,,0.00,,2013-06-02 22:53:00,
2013-06-02 18:02:00,64.0,43.0,30.01,NE,50,3.0,7.0,47,0.00,,,0.00,,2013-06-02 23:02:00,
2013-06-02 18:12:00,64.0,43.0,30.01,NE,50,3.0,7.0,47,0.00,,,0.00,,2013-06-02 23:12:00,
2013-06-02 18:22:00,63.0,44.0,30.01,North,11,4.0,10.0,50,0.00,,,0.00,,2013-06-02 23:22:00,
2013-06-02 18:32:00,62.0,44.0,30.01,ENE,59,6.0,9.0,51,0.00,,,0.00,,2013-06-02 23:32:00,
2013-06-02 18:42:00,62.0,44.0,30.01,ENE,59,6.0,9.0,51,0.00,,,0.00,,2013-06-02 23:42:00,
2013-06-02 18:52:00,62.0,43.0,30.00,NE,44,1.0,9.0,49,0.00,,,0.00,,2013-06-02 23:52:00,
2013-06-02 19:01:00,63.0,45.0,30.00,NNW,343,0.0,7.0,51,0.00,,,0.00,,2013-06-03 00:01:00,
2013-06-02 19:11:00,63.0,45.0,30.00,NNW,343,0.0,7.0,51,0.00,,,0.00,,2013-06-03 00:11:00,
2013-06-02 19:21:00,63.0,44.0,30.01,North,355,3.0,5.0,49,0.00,,,0.00,,2013-06-03 00:21:00,
2013-06-02 19:32:00,62.0,44.0,30.00,NE,53,3.0,5.0,52,0.00,,,0.00,,2013-06-03 00:32:00,
2013-06-02 19:42:00,62.0,44.0,30.00,NE,53,3.0,5.0,52,0.00,,,0.00,,2013-06-03 00:42:00,
2013-06-02 19:52:00,62.0,44.0,30.01,ENE,64,1.0,8.0,52,0.00,,,0.00,,2013-06-03 00:52:00,
2013-06-02 20:01:00,61.0,44.0,30.00,ENE,70,6.0,11.0,54,0.00,,,0.00,,2013-06-03 01:01:00,
2013-06-02 20:11:00,61.0,44.0,30.00,ENE,70,6.0,11.0,54,0.00,,,0.00,,2013-06-03 01:11:00,
2013-06-02 20:21:00,60.0,44.0,30.00,ENE,68,6.0,8.0,55,0.00,,,0.00,,2013-06-03 01:21:00,
2013-06-02 20:32:00,60.0,44.0,30.00,ENE,69,5.0,8.0,56,0.00,,,0.00,,2013-06-03 01:32:00,
2013-06-02 20:42:00,60.0,44.0,30.00,ENE,69,5.0,8.0,56,0.00,,,0.00,,2013-06-03 01:42:00,
2013-06-02 20:52:00,59.0,45.0,30.01,ENE,63,4.0,7.0,60,0.00,,,0.00,,2013-06-03 01:52:00,
2013-06-02 21:02:00,59.0,45.0,30.01,ENE,66,2.0,4.0,60,0.00,,,0.00,,2013-06-03 02:02:00,
2013-06-02 21:12:00,59.0,45.0,30.01,ENE,66,2.0,4.0,60,0.00,,,0.00,,2013-06-03 02:12:00,
2013-06-02 21:22:00,58.0,44.0,30.01,ENE,73,1.0,3.0,60,0.00,,,0.00,,2013-06-03 02:22:00,
2013-06-02 21:32:00,57.0,43.0,30.01,ENE,73,0.0,2.0,60,0.00,,,0.00,,2013-06-03 02:32:00,
2013-06-02 21:42:00,57.0,43.0,30.01,ENE,73,0.0,2.0,60,0.00,,,0.00,,2013-06-03 02:42:00,
2013-06-02 21:52:00,56.0,42.0,30.01,ENE,73,0.0,1.0,59,0.00,,,0.00,,2013-06-03 02:52:00,
2013-06-02 22:02:00,55.0,38.0,30.01,ENE,73,0.0,0.0,52,0.00,,,0.00,,2013-06-03 03:02:00,
2013-06-02 22:12:00,55.0,38.0,30.01,ENE,73,0.0,0.0,52,0.00,,,0.00,,2013-06-03 03:12:00,
2013-06-02 22:22:00,55.0,40.0,30.02,ENE,77,0.0,0.0,57,0.00,,,0.00,,2013-06-03 03:22:00,
2013-06-02 22:33:00,55.0,41.0,30.02,ENE,72,0.0,2.0,60,0.00,,,0.00,,2013-06-03 03:33:00,
2013-06-02 22:43:00,55.0,41.0,30.02,ENE,72,0.0,2.0,60,0.00,,,0.00,,2013-06-03 03:43:00,
2013-06-02 22:53:00,55.0,42.0,30.02,ENE,72,0.0,0.0,61,0.00,,,0.00,,2013-06-03 03:53:00,
2013-06-02 23:03:00,55.0,42.0,30.02,ENE,72,0.0,1.0,61,0.00,,,0.00,,2013-06-03 04:03:00,
2013-06-02 23:13:00,55.0,42.0,30.02,ENE,72,0.0,1.0,61,0.00,,,0.00,,2013-06-03 04:13:00,
2013-06-02 23:23:00,54.0,41.0,30.02,ENE,72,0.0,0.0,61,0.00,,,0.00,,2013-06-03 04:23:00,
2013-06-02 23:33:00,53.0,36.0,30.02,ENE,72,0.0,0.0,52,0.00,,,0.00,,2013-06-03 04:33:00,
2013-06-02 23:42:00,53.0,36.0,30.02,ENE,72,0.0,0.0,52,0.00,,,0.00,,2013-06-03 04:42:00,
2013-06-02 23:53:00,52.0,35.0,30.02,ENE,72,0.0,0.0,53,0.00,,,0.00,,2013-06-03 04:53:00,